Time;durP1;ratioP1;P1;durP2;ratioP2;P2;SDS_P1;SDS_P2;PMS_P1;PMS_P2;Temp;Humidity;BMP_temperature;BMP_pressure;BME280_temperature;BME280_humidity;BME280_pressure;Samples;Min_cycle;Max_cycle;Signal;HPM_P1;HPM_P2
2021/12/30 00:01:41;;;;;;;;;1.00;0.00;;;;;16.45;70.33;101146.22;5006954;28;45431;-73
2021/12/30 00:04:07;;;;;;;;;0.33;0.00;;;;;16.45;70.26;101171.16;5009746;28;45558;-81
2021/12/30 00:06:39;;;;;;;;;0.00;0.00;;;;;16.45;70.38;101168.38;5019738;28;45966;-72
2021/12/30 00:09:07;;;;;;;;;0.00;0.00;;;;;16.48;70.24;101163.22;5015856;28;45760;-80
2021/12/30 00:11:32;;;;;;;;;0.00;0.00;;;;;16.51;70.15;101167.41;5009312;28;45820;-72
2021/12/30 00:13:57;;;;;;;;;0.00;0.00;;;;;16.47;70.87;101174.53;5009420;28;46470;-72
2021/12/30 00:16:23;;;;;;;;;0.00;0.00;;;;;16.45;70.38;101171.16;5007902;28;45355;-72
2021/12/30 00:18:49;;;;;;;;;0.00;0.00;;;;;16.42;70.79;101167.78;5009987;28;45520;-73
2021/12/30 00:21:15;;;;;;;;;0.00;0.00;;;;;16.42;69.95;101159.47;5008873;28;45719;-72
2021/12/30 00:23:42;;;;;;;;;0.00;0.00;;;;;16.41;70.49;101157.78;5010256;28;45776;-73
2021/12/30 00:26:08;;;;;;;;;0.00;0.00;;;;;16.45;70.01;101158.13;5010854;28;45847;-79
2021/12/30 00:28:34;;;;;;;;;0.00;0.00;;;;;16.46;71.04;101161.75;5009761;28;45548;-79
2021/12/30 00:30:59;;;;;;;;;0.50;0.00;;;;;16.45;70.32;101171.97;4990848;28;45779;-72
2021/12/30 00:33:27;;;;;;;;;0.00;0.00;;;;;16.44;70.11;101158.38;5008910;28;45761;-81
2021/12/30 00:35:54;;;;;;;;;0.00;0.00;;;;;16.46;69.83;101173.66;5009441;28;45913;-73
2021/12/30 00:38:19;;;;;;;;;0.00;0.00;;;;;16.44;70.58;101166.69;5009092;28;45430;-70
2021/12/30 00:40:45;;;;;;;;;0.00;0.00;;;;;16.46;70.22;101164.53;5007082;28;45532;-73
2021/12/30 00:43:11;;;;;;;;;0.00;0.00;;;;;16.44;69.76;101167.53;5008037;28;45847;-79
2021/12/30 00:45:37;;;;;;;;;0.00;0.00;;;;;16.44;70.59;101177.75;5007556;28;45902;-71
2021/12/30 00:48:05;;;;;;;;;0.00;0.00;;;;;16.40;70.66;101169.09;5008308;28;45952;-71
2021/12/30 00:50:30;;;;;;;;;0.00;0.00;;;;;16.45;70.83;101173.91;5010058;28;45859;-80
2021/12/30 00:52:58;;;;;;;;;0.00;0.00;;;;;16.41;70.49;101162.47;4993219;28;46094;-80
2021/12/30 00:55:24;;;;;;;;;0.00;0.00;;;;;16.42;70.42;101178.84;5010152;28;45385;-80
2021/12/30 00:57:50;;;;;;;;;0.00;0.00;;;;;16.45;70.56;101184.97;5012500;28;45693;-82
2021/12/30 01:00:18;;;;;;;;;2.00;0.00;;;;;16.42;70.56;101180.75;5013138;28;45820;-72
2021/12/30 01:02:43;;;;;;;;;1.00;1.00;;;;;16.37;71.15;101181.47;4996315;28;46965;-80
2021/12/30 01:05:10;;;;;;;;;0.00;0.00;;;;;16.36;70.87;101182.56;5014616;28;45357;-79
2021/12/30 01:07:36;;;;;;;;;0.00;0.00;;;;;16.35;70.87;101196.66;5014097;28;45354;-79
2021/12/30 01:10:04;;;;;;;;;0.00;0.00;;;;;16.34;70.73;101198.56;5015887;28;45441;-81
2021/12/30 01:12:30;;;;;;;;;0.00;0.00;;;;;16.31;71.30;101204.56;5010006;28;45708;-73
2021/12/30 01:14:56;;;;;;;;;0.00;0.00;;;;;16.31;70.92;101212.03;5016853;28;45653;-82
2021/12/30 01:17:39;;;;;;;;;0.00;0.00;;;;;16.30;71.77;101221.41;5011603;28;45950;-72
2021/12/30 01:20:06;;;;;;;;;0.00;0.00;;;;;16.25;71.67;101211.03;5011488;28;45915;-71
2021/12/30 01:22:33;;;;;;;;;0.00;0.00;;;;;16.29;71.36;101219.72;5014657;28;46553;-80
2021/12/30 01:24:59;;;;;;;;;0.00;0.00;;;;;16.27;72.40;101219.13;5015343;28;45600;-80
2021/12/30 01:27:25;;;;;;;;;0.00;0.00;;;;;16.26;72.14;101228.50;5013254;28;45775;-72
2021/12/30 01:29:51;;;;;;;;;0.00;0.00;;;;;16.22;72.28;101230.91;5010316;28;46100;-72
2021/12/30 01:32:17;;;;;;;;;1.00;1.00;;;;;16.23;71.89;101227.06;4994778;28;46528;-81
2021/12/30 01:34:42;;;;;;;;;1.00;1.00;;;;;16.20;72.58;101233.91;5011212;28;45598;-71
2021/12/30 01:37:08;;;;;;;;;1.67;0.00;;;;;16.18;72.90;101236.06;5012456;28;45549;-81
2021/12/30 01:39:37;;;;;;;;;1.00;1.00;;;;;16.19;72.88;101232.19;5014094;28;45435;-80
2021/12/30 01:42:05;;;;;;;;;1.67;1.00;;;;;16.18;72.99;101225.00;5007195;28;45779;-80
2021/12/30 01:44:33;;;;;;;;;1.00;1.00;;;;;16.19;72.77;101234.13;5014050;28;45880;-70
2021/12/30 01:46:59;;;;;;;;;2.00;1.00;;;;;16.21;72.99;101240.25;5011786;28;45376;-80
2021/12/30 01:49:26;;;;;;;;;0.33;0.33;;;;;16.21;72.74;101240.25;5016340;28;45736;-80
2021/12/30 01:51:53;;;;;;;;;1.00;1.00;;;;;16.22;73.24;101237.25;5012481;28;45964;-72
2021/12/30 01:54:19;;;;;;;;;0.00;0.00;;;;;16.24;72.60;101240.66;5014072;28;46220;-76
2021/12/30 01:56:45;;;;;;;;;0.00;0.00;;;;;16.23;72.79;101249.19;5012173;28;45449;-72
2021/12/30 01:59:11;;;;;;;;;1.33;0.33;;;;;16.22;72.82;101253.88;5014135;28;45419;-70
2021/12/30 02:01:36;;;;;;;;;1.00;1.00;;;;;16.21;72.51;101251.34;5011172;28;46633;-70
2021/12/30 02:04:02;;;;;;;;;0.00;0.00;;;;;16.20;72.69;101241.38;5011506;28;45641;-80
2021/12/30 02:06:27;;;;;;;;;1.00;1.00;;;;;16.22;73.26;101248.34;5014932;28;45846;-79
2021/12/30 02:08:54;;;;;;;;;0.67;0.67;;;;;16.22;72.65;101247.50;5008541;28;45462;-79
2021/12/30 02:11:20;;;;;;;;;0.67;0.67;;;;;16.19;73.20;101253.50;5011556;28;45472;-71
2021/12/30 02:13:49;;;;;;;;;1.00;1.00;;;;;16.19;72.69;101259.03;5010612;28;45601;-72
2021/12/30 02:16:17;;;;;;;;;1.00;1.00;;;;;16.20;73.04;101258.81;5010221;28;45518;-79
2021/12/30 02:18:42;;;;;;;;;0.00;0.00;;;;;16.19;72.99;101259.88;4996588;28;45704;-80
2021/12/30 02:21:08;;;;;;;;;0.00;0.00;;;;;16.19;73.16;101257.09;5011016;28;45909;-81
2021/12/30 02:23:36;;;;;;;;;2.00;0.00;;;;;16.16;73.06;101259.50;5008118;28;45463;-71
2021/12/30 02:26:05;;;;;;;;;0.00;0.00;;;;;16.20;72.94;101264.34;4992742;28;45763;-71
2021/12/30 02:28:35;;;;;;;;;0.33;0.33;;;;;16.18;73.04;101268.41;5012850;28;45525;-79
2021/12/30 02:31:04;;;;;;;;;0.00;0.00;;;;;16.16;73.00;101265.88;5012220;28;46299;-72
2021/12/30 02:33:29;;;;;;;;;0.00;0.00;;;;;16.18;72.40;101269.28;5012055;28;45395;-70
2021/12/30 02:35:56;;;;;;;;;0.00;0.00;;;;;16.20;72.35;101272.63;5012685;28;45971;-70
2021/12/30 02:38:23;;;;;;;;;0.00;0.00;;;;;16.20;72.87;101272.63;5013159;28;46425;-80
2021/12/30 02:40:53;;;;;;;;;0.00;0.00;;;;;16.22;73.26;101276.00;5009685;28;45778;-81
2021/12/30 02:43:25;;;;;;;;;0.00;0.00;;;;;16.22;72.62;101284.31;5013365;28;45612;-77
2021/12/30 02:45:52;;;;;;;;;0.00;0.00;;;;;16.21;72.20;101287.31;5024411;28;45816;-79
2021/12/30 02:48:24;;;;;;;;;0.00;0.00;;;;;16.21;72.33;101302.00;5011377;28;45734;-80
2021/12/30 02:50:53;;;;;;;;;0.00;0.00;;;;;16.21;72.46;101298.38;5011685;28;46086;-70
2021/12/30 02:53:20;;;;;;;;;0.33;0.00;;;;;16.22;71.87;101300.09;5008673;28;45640;-70
2021/12/30 02:55:47;;;;;;;;;0.00;0.00;;;;;16.23;71.79;101299.84;5017749;28;45804;-78
2021/12/30 02:58:13;;;;;;;;;0.00;0.00;;;;;16.20;71.59;101300.31;5011928;28;45936;-78
2021/12/30 03:00:43;;;;;;;;;0.00;0.00;;;;;16.23;71.60;101307.31;5012094;28;45474;-70
2021/12/30 03:03:23;;;;;;;;;0.75;0.00;;;;;16.22;71.82;101302.84;5009609;28;45858;-72
2021/12/30 03:05:56;;;;;;;;;0.00;0.00;;;;;16.23;71.76;101304.56;5010139;28;45759;-70
2021/12/30 03:08:21;;;;;;;;;0.00;0.00;;;;;16.21;71.66;101303.91;5010444;28;45882;-71
2021/12/30 03:10:47;;;;;;;;;0.50;0.00;;;;;16.21;71.56;101295.63;5008476;28;45843;-70
2021/12/30 03:13:19;;;;;;;;;0.00;0.00;;;;;16.20;72.22;101293.94;5010319;28;45781;-71
2021/12/30 03:15:46;;;;;;;;;0.00;0.00;;;;;16.21;71.72;101292.84;5009844;28;45757;-71
2021/12/30 03:18:13;;;;;;;;;0.00;0.00;;;;;16.22;71.21;101302.84;5010304;28;46211;-71
2021/12/30 03:20:38;;;;;;;;;0.00;0.00;;;;;16.20;71.72;101297.53;5007805;28;45932;-72
2021/12/30 03:23:04;;;;;;;;;0.00;0.00;;;;;16.21;71.20;101298.38;5009554;28;45383;-79
2021/12/30 03:25:31;;;;;;;;;0.00;0.00;;;;;16.21;71.52;101301.16;5009815;28;45803;-70
2021/12/30 03:27:57;;;;;;;;;0.00;0.00;;;;;16.23;71.33;101301.78;5012032;28;45409;-79
2021/12/30 03:30:23;;;;;;;;;1.00;1.00;;;;;16.24;71.60;101303.44;5009126;28;45514;-72
2021/12/30 03:32:49;;;;;;;;;0.00;0.00;;;;;16.24;71.25;101306.22;5010341;28;45854;-72
2021/12/30 03:35:15;;;;;;;;;1.00;0.00;;;;;16.20;71.11;101293.94;5010463;28;45585;-73
2021/12/30 03:37:41;;;;;;;;;0.00;0.00;;;;;16.22;70.85;101291.78;5012179;28;45503;-80
2021/12/30 03:40:11;;;;;;;;;0.00;0.00;;;;;16.21;70.82;101293.72;5008810;28;45578;-79
2021/12/30 03:42:37;;;;;;;;;0.00;0.00;;;;;16.18;71.40;101294.19;5011394;28;45336;-79
2021/12/30 03:45:05;;;;;;;;;0.00;0.00;;;;;16.21;70.63;101292.84;5010254;28;45439;-71
2021/12/30 03:47:30;;;;;;;;;0.00;0.00;;;;;16.23;71.56;101293.47;4991793;28;45613;-71
2021/12/30 03:49:56;;;;;;;;;0.00;0.00;;;;;16.22;70.82;101291.78;5010521;28;46374;-71
2021/12/30 03:52:30;;;;;;;;;0.00;0.00;;;;;16.25;70.70;101296.84;5011592;28;45571;-82
2021/12/30 03:54:55;;;;;;;;;0.75;0.00;;;;;16.21;71.04;101290.09;5016256;28;45861;-70
2021/12/30 03:57:21;;;;;;;;;1.00;0.00;;;;;16.21;71.46;101295.63;5010780;28;45587;-70
2021/12/30 03:59:46;;;;;;;;;0.00;0.00;;;;;16.18;70.69;101290.56;5011566;28;46167;-71
2021/12/30 04:02:17;;;;;;;;;0.00;0.00;;;;;16.19;71.24;101292.25;5016028;28;45354;-79
2021/12/30 04:04:43;;;;;;;;;0.00;0.00;;;;;16.19;70.53;101295.00;5000071;28;45436;-79
2021/12/30 04:07:09;;;;;;;;;0.00;0.00;;;;;16.17;70.82;101291.66;4995313;28;45504;-73
2021/12/30 04:09:35;;;;;;;;;0.00;0.00;;;;;16.18;70.77;101293.31;5012808;28;46480;-70
2021/12/30 04:12:01;;;;;;;;;0.00;0.00;;;;;16.21;71.12;101295.63;5012404;28;45756;-71
2021/12/30 04:14:27;;;;;;;;;1.00;1.00;;;;;16.23;70.63;101304.56;5013865;28;45748;-81
2021/12/30 04:16:53;;;;;;;;;0.50;0.50;;;;;16.22;70.98;101300.91;5012033;28;45619;-80
2021/12/30 04:19:19;;;;;;;;;0.00;0.00;;;;;16.20;70.51;101297.53;5011909;28;45901;-80
2021/12/30 04:21:45;;;;;;;;;0.00;0.00;;;;;16.27;70.55;101293.84;5000355;28;45241;-80
2021/12/30 04:24:10;;;;;;;;;0.00;0.00;;;;;16.26;70.82;101298.53;5024312;28;45917;-80
2021/12/30 04:26:36;;;;;;;;;0.00;0.00;;;;;16.29;70.32;101299.97;5011521;28;45611;-72
2021/12/30 04:29:02;;;;;;;;;1.00;0.00;;;;;16.28;70.71;101298.31;5004434;28;46283;-80
2021/12/30 04:31:28;;;;;;;;;0.00;0.00;;;;;16.27;70.38;101294.69;5007661;28;45855;-80
2021/12/30 04:33:53;;;;;;;;;0.00;0.00;;;;;16.27;70.80;101288.31;5013415;28;45672;-71
2021/12/30 04:36:18;;;;;;;;;2.75;0.00;;;;;16.29;69.81;101287.00;4995244;28;46622;-82
2021/12/30 04:38:47;;;;;;;;;0.00;0.00;;;;;16.31;69.92;101286.78;5011744;28;45719;-79
2021/12/30 04:41:13;;;;;;;;;0.00;0.00;;;;;16.31;69.96;101286.78;5015624;28;45481;-79
2021/12/30 04:43:39;;;;;;;;;0.00;0.00;;;;;16.30;70.21;101291.47;5015357;28;45384;-82
2021/12/30 04:46:07;;;;;;;;;0.00;0.00;;;;;16.35;69.82;101297.13;5015622;28;45474;-80
2021/12/30 04:48:33;;;;;;;;;0.00;0.00;;;;;16.28;69.86;101287.25;5014946;28;45222;-80
2021/12/30 04:50:59;;;;;;;;;0.00;0.00;;;;;16.35;69.71;101313.75;5014147;28;45375;-80
2021/12/30 04:53:24;;;;;;;;;0.00;0.00;;;;;16.38;69.46;101306.91;5015067;28;45024;-81
2021/12/30 04:55:51;;;;;;;;;0.00;0.00;;;;;16.39;69.72;101320.50;4996708;28;46904;-80
2021/12/30 04:58:16;;;;;;;;;0.25;0.00;;;;;16.36;69.55;101315.44;5005269;28;47230;-71
2021/12/30 05:00:42;;;;;;;;;3.00;0.00;;;;;16.39;69.11;101314.97;5003184;28;45505;-71
2021/12/30 05:03:15;;;;;;;;;0.25;0.00;;;;;16.37;69.39;101322.66;4993036;28;45804;-72
2021/12/30 05:05:44;;;;;;;;;0.00;0.00;;;;;16.32;69.77;101324.44;5007190;28;45894;-71
2021/12/30 05:08:11;;;;;;;;;0.00;0.00;;;;;16.26;69.62;101320.69;4991133;28;46969;-70
2021/12/30 05:10:37;;;;;;;;;1.00;0.00;;;;;16.30;69.53;101338.53;5005126;28;45432;-70
2021/12/30 05:13:08;;;;;;;;;0.00;0.00;;;;;16.27;68.96;101340.91;5004313;28;45848;-70
2021/12/30 05:15:37;;;;;;;;;0.50;0.00;;;;;16.20;69.83;101335.47;5002827;28;45508;-70
2021/12/30 05:18:05;;;;;;;;;0.00;0.00;;;;;16.18;69.47;101332.94;5003517;28;46158;-69
2021/12/30 05:20:31;;;;;;;;;0.00;0.00;;;;;16.18;69.72;101330.16;4997406;28;45950;-78
2021/12/30 05:22:56;;;;;;;;;0.00;0.00;;;;;16.16;68.99;101320.38;4992150;28;45728;-76
2021/12/30 05:25:22;;;;;;;;;2.00;0.00;;;;;16.15;69.91;101324.22;4990313;28;45648;-72
2021/12/30 05:27:49;;;;;;;;;0.00;0.00;;;;;16.13;70.14;101326.38;5002466;28;46265;-77
2021/12/30 05:30:15;;;;;;;;;1.00;0.25;;;;;16.13;69.97;101329.16;5006249;28;46781;-69
2021/12/30 05:32:43;;;;;;;;;1.00;0.00;;;;;16.12;70.03;101330.22;5003782;28;45478;-69
2021/12/30 05:35:10;;;;;;;;;1.25;0.00;;;;;16.11;69.50;101334.06;5005850;28;45372;-76
2021/12/30 05:37:36;;;;;;;;;0.00;0.00;;;;;16.12;69.36;101336.59;5002769;28;46372;-77
2021/12/30 05:40:02;;;;;;;;;3.00;0.50;;;;;16.11;70.17;101334.91;5003692;28;45784;-69
2021/12/30 05:42:28;;;;;;;;;0.00;0.00;;;;;16.05;68.98;101346.91;5006132;28;45471;-68
2021/12/30 05:44:54;;;;;;;;;0.67;0.00;;;;;15.99;70.35;101362.50;5002724;28;45736;-77
2021/12/30 05:47:21;;;;;;;;;0.50;0.00;;;;;15.91;70.01;101357.25;5001700;28;45706;-72
2021/12/30 05:49:47;;;;;;;;;0.00;0.00;;;;;15.81;70.80;101351.44;5006121;28;46276;-74
2021/12/30 05:52:13;;;;;;;;;0.33;0.33;;;;;15.75;70.59;101355.06;4992751;28;45673;-70
2021/12/30 05:54:39;;;;;;;;;0.00;0.00;;;;;15.70;71.29;101367.69;5012348;28;45848;-81
2021/12/30 05:57:05;;;;;;;;;0.33;0.33;;;;;15.65;71.59;101364.75;5010636;28;45885;-72
2021/12/30 05:59:30;;;;;;;;;0.25;0.00;;;;;15.59;71.40;101368.41;5010477;28;45840;-73
2021/12/30 06:01:56;;;;;;;;;2.00;1.00;;;;;15.53;71.26;101367.41;5009377;28;45926;-80
2021/12/30 06:04:25;;;;;;;;;2.00;1.00;;;;;15.48;71.69;101380.22;4994302;28;45514;-74
2021/12/30 06:06:51;;;;;;;;;1.67;1.00;;;;;15.36;71.54;101369.91;5022195;28;46329;-73
2021/12/30 06:09:25;;;;;;;;;2.00;0.67;;;;;15.39;71.74;101368.59;5027112;28;45480;-83
2021/12/30 06:11:51;;;;;;;;;0.33;0.33;;;;;15.35;71.62;101372.88;5011223;28;45846;-72
2021/12/30 06:14:16;;;;;;;;;1.00;1.00;;;;;15.31;71.66;101363.34;5011617;28;45636;-82
2021/12/30 06:16:42;;;;;;;;;2.67;0.33;;;;;15.28;72.27;101386.75;5007432;28;46263;-79
2021/12/30 06:19:07;;;;;;;;;1.33;0.00;;;;;15.27;71.85;101378.69;5010592;28;45889;-80
2021/12/30 06:21:33;;;;;;;;;1.00;1.00;;;;;15.21;72.58;101376.81;5008380;28;45899;-80
2021/12/30 06:23:58;;;;;;;;;1.00;0.67;;;;;15.18;71.82;101375.38;5007940;28;45545;-81
2021/12/30 06:26:24;;;;;;;;;0.00;0.00;;;;;15.14;72.17;101376.88;5011137;28;46598;-81
2021/12/30 06:28:49;;;;;;;;;0.00;0.00;;;;;15.07;72.42;101376.06;5011795;28;45615;-74
2021/12/30 06:31:15;;;;;;;;;2.67;0.00;;;;;15.05;72.50;101387.34;4989083;28;46896;-72
2021/12/30 06:33:40;;;;;;;;;1.00;0.00;;;;;15.03;72.24;101388.63;5007720;28;45896;-76
2021/12/30 06:36:06;;;;;;;;;1.00;1.00;;;;;15.04;71.96;101395.84;5007376;28;45836;-79
2021/12/30 06:38:33;;;;;;;;;0.00;0.00;;;;;15.02;72.30;101411.81;5012010;28;45714;-77
2021/12/30 06:40:59;;;;;;;;;1.00;1.00;;;;;15.01;71.93;101410.94;5011096;28;45431;-78
2021/12/30 06:43:31;;;;;;;;;3.33;1.00;;;;;14.99;72.53;101410.34;5013114;28;45783;-79
2021/12/30 06:45:56;;;;;;;;;2.00;1.00;;;;;14.96;72.02;101405.25;5014604;28;45969;-79
2021/12/30 06:48:22;;;;;;;;;0.67;0.67;;;;;14.93;72.49;101417.59;4994683;28;45704;-80
2021/12/30 06:50:53;;;;;;;;;3.33;2.33;;;;;14.91;72.53;101408.69;5014724;28;45503;-78
2021/12/30 06:53:23;;;;;;;;;4.67;0.00;;;;;14.89;72.72;101421.84;5013643;28;45463;-76
2021/12/30 06:55:50;;;;;;;;;0.67;0.67;;;;;14.86;72.82;101421.47;5012666;28;45426;-75
2021/12/30 06:58:16;;;;;;;;;1.00;1.00;;;;;14.83;72.90;101420.84;5015434;28;45399;-76
2021/12/30 07:00:42;;;;;;;;;1.33;1.33;;;;;14.85;72.55;101431.69;5013361;28;45383;-70
2021/12/30 07:05:43;;;;;;;;;2.67;1.33;;;;;14.79;73.00;101432.53;4964626;26;46028;-71
2021/12/30 07:08:08;;;;;;;;;1.33;1.33;;;;;14.82;73.19;101434.88;5011493;28;45427;-75
2021/12/30 07:10:34;;;;;;;;;0.00;0.00;;;;;14.78;73.18;101437.22;5011264;28;45426;-72
2021/12/30 07:13:00;;;;;;;;;4.00;1.00;;;;;14.76;73.17;101439.38;4988546;28;45404;-76
2021/12/30 07:15:25;;;;;;;;;3.00;2.00;;;;;14.76;73.22;101446.78;4989023;28;46487;-74
2021/12/30 07:17:50;;;;;;;;;4.00;0.67;;;;;14.75;72.46;101437.66;5005599;28;46384;-75
2021/12/30 07:20:17;;;;;;;;;3.00;1.00;;;;;14.79;72.65;101451.84;5004185;28;45844;-71
2021/12/30 07:22:43;;;;;;;;;5.00;1.33;;;;;14.80;72.24;101437.84;5004961;28;46586;-69
2021/12/30 07:25:10;;;;;;;;;2.67;1.00;;;;;14.85;72.01;101448.25;5003265;28;46832;-69
2021/12/30 07:27:36;;;;;;;;;5.00;2.00;;;;;14.89;71.95;101438.44;5007462;28;46019;-70
2021/12/30 07:30:03;;;;;;;;;2.33;1.00;;;;;14.97;71.52;101452.00;5000511;28;46092;-71
2021/12/30 07:32:28;;;;;;;;;2.33;1.33;;;;;14.99;71.60;101444.31;5006205;28;46823;-69
2021/12/30 07:34:54;;;;;;;;;1.00;1.00;;;;;15.06;70.56;101454.50;4997651;28;46485;-70
2021/12/30 07:37:20;;;;;;;;;4.00;4.00;;;;;15.11;70.97;101463.81;5006000;28;45973;-70
2021/12/30 07:39:48;;;;;;;;;5.33;1.67;;;;;15.16;70.33;101460.38;5004531;28;45655;-69
2021/12/30 07:42:17;;;;;;;;;2.00;2.00;;;;;15.21;70.08;101456.94;5008136;28;46091;-78
2021/12/30 07:44:43;;;;;;;;;1.00;1.00;;;;;15.25;70.04;101448.00;5007304;28;47332;-71
2021/12/30 07:47:08;;;;;;;;;0.00;0.00;;;;;15.28;69.80;101458.59;5010784;28;46069;-80
2021/12/30 07:49:36;;;;;;;;;2.33;2.00;;;;;15.34;69.13;101467.91;5006204;28;45432;-76
2021/12/30 07:52:06;;;;;;;;;2.00;2.00;;;;;15.35;69.20;101464.94;4989776;28;45926;-77
2021/12/30 07:54:31;;;;;;;;;2.67;1.33;;;;;15.42;68.81;101475.09;5003022;28;45855;-79
2021/12/30 07:56:57;;;;;;;;;2.33;2.33;;;;;15.43;68.69;101474.03;5006951;28;45874;-71
2021/12/30 07:59:22;;;;;;;;;5.67;2.00;;;;;15.46;68.68;101482.72;5009394;28;45558;-77
2021/12/30 08:01:48;;;;;;;;;1.00;1.00;;;;;15.51;68.50;101490.34;5006903;28;45434;-78
2021/12/30 08:04:13;;;;;;;;;1.00;1.00;;;;;15.52;68.53;101494.78;4987668;28;46879;-76
2021/12/30 08:06:39;;;;;;;;;6.00;1.67;;;;;15.53;67.93;101493.72;4986302;28;46740;-78
2021/12/30 08:09:06;;;;;;;;;2.00;2.00;;;;;15.58;68.28;101501.34;5004644;28;45722;-72
2021/12/30 08:11:32;;;;;;;;;3.00;2.00;;;;;15.61;68.11;101503.66;5005619;28;45964;-74
2021/12/30 08:13:59;;;;;;;;;6.00;3.00;;;;;15.64;68.10;101512.38;5005729;28;46866;-69
2021/12/30 08:16:28;;;;;;;;;1.67;0.67;;;;;15.65;67.86;101521.50;5007834;28;45763;-72
2021/12/30 08:18:53;;;;;;;;;3.00;1.33;;;;;15.68;67.38;101527.44;5008012;28;45378;-70
2021/12/30 08:21:22;;;;;;;;;2.00;2.00;;;;;15.69;67.77;101520.00;4987306;28;45796;-70
2021/12/30 08:23:48;;;;;;;;;4.00;2.33;;;;;15.70;67.66;101524.44;5008618;28;45669;-76
2021/12/30 08:26:14;;;;;;;;;6.00;2.00;;;;;15.74;67.27;101539.53;4996377;28;45734;-71
2021/12/30 08:28:39;;;;;;;;;2.33;2.33;;;;;15.78;67.90;101528.88;4983474;28;45590;-73
2021/12/30 08:31:05;;;;;;;;;2.00;0.00;;;;;15.72;67.73;101525.09;4993561;28;45741;-77
2021/12/30 08:33:31;;;;;;;;;2.33;1.00;;;;;15.83;67.14;101545.66;5006653;28;46040;-78
2021/12/30 08:35:57;;;;;;;;;6.00;2.67;;;;;15.87;66.46;101546.91;5006078;28;45766;-78
2021/12/30 08:38:22;;;;;;;;;5.00;3.33;;;;;15.86;66.92;101551.59;5009589;28;45949;-72
2021/12/30 08:40:48;;;;;;;;;3.00;2.33;;;;;15.91;66.60;101556.44;5008761;28;45599;-72
2021/12/30 08:43:16;;;;;;;;;4.67;3.00;;;;;15.92;66.84;101560.91;4989250;28;46159;-78
2021/12/30 08:45:41;;;;;;;;;1.00;1.00;;;;;15.93;66.87;101559.84;4984800;28;45524;-79
2021/12/30 08:48:07;;;;;;;;;4.67;1.67;;;;;15.93;66.85;101551.56;5006540;28;45472;-78
2021/12/30 08:50:33;;;;;;;;;2.33;1.00;;;;;16.00;66.15;101548.72;4999906;28;45587;-73
2021/12/30 08:52:59;;;;;;;;;3.00;2.00;;;;;16.04;66.56;101555.50;4985933;28;47642;-73
2021/12/30 08:55:25;;;;;;;;;5.00;2.00;;;;;16.10;66.05;101564.81;5003516;28;46061;-77
2021/12/30 08:57:50;;;;;;;;;3.00;2.00;;;;;16.11;65.99;101563.72;5005424;28;45484;-73
2021/12/30 09:00:16;;;;;;;;;3.00;2.67;;;;;16.14;66.51;101555.00;5005991;28;47299;-72
2021/12/30 09:02:42;;;;;;;;;5.00;4.00;;;;;16.16;65.78;101548.16;4985018;28;46109;-70
2021/12/30 09:05:08;;;;;;;;;10.00;7.67;;;;;16.20;66.35;101543.03;5000851;28;45611;-78
2021/12/30 09:07:33;;;;;;;;;6.67;6.67;;;;;16.29;65.96;101552.72;5003129;28;45584;-71
2021/12/30 09:09:59;;;;;;;;;8.67;3.33;;;;;16.29;65.33;101549.97;4988649;28;46070;-71
2021/12/30 09:12:24;;;;;;;;;2.00;2.00;;;;;16.36;65.68;101559.06;5008294;28;45560;-71
2021/12/30 09:14:53;;;;;;;;;7.00;3.67;;;;;16.36;65.57;101553.50;5004067;28;45854;-70
2021/12/30 09:17:19;;;;;;;;;5.33;4.00;;;;;16.44;65.52;101559.81;5007339;28;46033;-72
2021/12/30 09:19:44;;;;;;;;;3.00;3.00;;;;;16.49;64.93;101557.22;5008464;28;45711;-78
2021/12/30 09:22:09;;;;;;;;;5.00;3.00;;;;;16.49;64.38;101563.59;5008216;28;46903;-78
2021/12/30 09:24:35;;;;;;;;;5.00;3.00;;;;;16.54;64.70;101565.69;5011437;28;45453;-80
2021/12/30 09:27:01;;;;;;;;;4.67;2.00;;;;;16.61;64.67;101565.63;4996047;28;45611;-71
2021/12/30 09:29:27;;;;;;;;;3.33;2.67;;;;;16.68;65.00;101572.78;5008346;28;46923;-72
2021/12/30 09:31:52;;;;;;;;;2.00;2.00;;;;;16.75;64.64;101572.69;4989002;28;48043;-70
2021/12/30 09:34:20;;;;;;;;;4.00;4.00;;;;;16.82;64.70;101569.88;4993037;28;45797;-72
2021/12/30 09:36:46;;;;;;;;;1.33;1.33;;;;;16.88;64.09;101572.56;5010411;28;45625;-71
2021/12/30 09:39:14;;;;;;;;;2.33;2.00;;;;;16.92;64.07;101582.13;4992992;28;47084;-72
2021/12/30 09:41:43;;;;;;;;;3.00;3.00;;;;;16.99;63.50;101582.06;5010480;28;45439;-71
2021/12/30 09:44:10;;;;;;;;;1.33;1.33;;;;;17.01;63.50;101577.13;5008448;28;45828;-72
2021/12/30 09:46:36;;;;;;;;;4.00;3.00;;;;;17.05;62.89;101586.69;5008363;28;45819;-75
2021/12/30 09:49:04;;;;;;;;;3.00;1.67;;;;;17.07;63.30;101590.06;4993389;28;46623;-78
2021/12/30 09:51:30;;;;;;;;;3.67;2.33;;;;;17.12;62.90;101581.03;5012500;28;45818;-79
2021/12/30 09:53:56;;;;;;;;;5.33;3.00;;;;;17.20;62.65;101590.97;5007527;28;45826;-71
2021/12/30 09:56:23;;;;;;;;;7.33;2.00;;;;;17.23;62.62;101590.50;5012324;28;45555;-77
2021/12/30 09:58:48;;;;;;;;;3.00;1.67;;;;;17.31;62.51;101587.41;5011634;28;45748;-77
2021/12/30 10:01:14;;;;;;;;;3.33;3.33;;;;;17.41;61.95;101586.84;5010728;28;45831;-72
2021/12/30 10:03:40;;;;;;;;;2.33;1.67;;;;;17.46;62.19;101567.59;5010407;28;45928;-71
2021/12/30 10:06:11;;;;;;;;;6.67;1.00;;;;;17.53;62.25;101578.59;5012226;28;45923;-75
2021/12/30 10:08:42;;;;;;;;;8.33;3.00;;;;;17.58;62.13;101589.84;5011989;28;45388;-79
2021/12/30 10:11:14;;;;;;;;;3.67;3.00;;;;;17.68;62.00;101597.56;5005372;28;45787;-74
2021/12/30 10:13:56;;;;;;;;;3.00;2.00;;;;;17.77;60.89;101598.94;5007628;28;45424;-72
2021/12/30 10:16:23;;;;;;;;;2.00;1.00;;;;;17.82;60.96;101588.81;5009893;28;45816;-73
2021/12/30 10:18:55;;;;;;;;;6.67;2.33;;;;;17.93;60.85;101591.91;5005887;28;45690;-71
2021/12/30 10:21:30;;;;;;;;;4.67;3.00;;;;;17.96;60.75;101603.38;5007193;28;46738;-72
2021/12/30 10:23:58;;;;;;;;;8.00;5.33;;;;;18.00;60.98;101598.19;4991934;28;45605;-72
2021/12/30 10:26:24;;;;;;;;;8.00;7.33;;;;;18.04;60.89;101601.34;5006425;28;45949;-72
2021/12/30 10:29:02;;;;;;;;;4.33;2.67;;;;;18.14;60.72;101613.56;5010355;28;45814;-72
2021/12/30 10:31:30;;;;;;;;;3.67;2.67;;;;;18.20;60.03;101610.91;4989671;28;46844;-72
2021/12/30 10:34:04;;;;;;;;;3.33;2.00;;;;;18.18;60.14;101603.66;5011074;28;45863;-71
2021/12/30 10:36:36;;;;;;;;;2.75;1.75;;;;;18.20;60.21;101603.41;5006822;28;45852;-71
2021/12/30 10:39:25;;;;;;;;;2.67;1.33;;;;;18.24;60.72;101595.47;5008845;28;46099;-72
2021/12/30 10:42:15;;;;;;;;;3.33;3.33;;;;;18.24;60.19;101584.38;5009796;28;45496;-73
2021/12/30 10:44:52;;;;;;;;;5.00;2.33;;;;;18.22;60.37;101584.59;5005706;28;45508;-73
2021/12/30 10:47:19;;;;;;;;;2.67;2.67;;;;;18.23;59.99;101571.56;5008123;28;46976;-72
2021/12/30 10:50:06;;;;;;;;;5.00;4.00;;;;;18.24;59.84;101584.38;5009134;28;45347;-71
2021/12/30 10:52:32;;;;;;;;;3.00;2.00;;;;;18.35;59.64;101580.72;5010020;28;46438;-70
2021/12/30 10:55:16;;;;;;;;;5.00;1.67;;;;;18.41;59.58;101595.59;5005946;28;45693;-72
2021/12/30 10:57:45;;;;;;;;;2.00;2.00;;;;;18.46;59.58;101593.78;5014185;28;45740;-72
2021/12/30 11:00:24;;;;;;;;;4.67;3.00;;;;;18.51;59.40;101585.56;4993759;28;46755;-77
2021/12/30 11:02:52;;;;;;;;;5.00;4.00;;;;;18.52;59.39;101578.94;5009746;28;46320;-78
2021/12/30 11:05:18;;;;;;;;;4.67;2.33;;;;;18.56;59.37;101586.78;5012789;28;45296;-77
2021/12/30 11:07:48;;;;;;;;;3.00;1.00;;;;;18.60;58.60;101594.38;5014783;28;45895;-76
2021/12/30 11:10:28;;;;;;;;;3.00;3.00;;;;;18.56;59.04;101593.19;5014515;28;45449;-71
2021/12/30 11:13:23;;;;;;;;;3.67;3.00;;;;;18.57;59.13;101588.47;5010158;28;46524;-72
2021/12/30 11:16:02;;;;;;;;;8.00;3.50;;;;;18.48;59.45;101583.28;4998783;28;45891;-72
2021/12/30 11:18:44;;;;;;;;;5.75;3.75;;;;;18.43;59.46;101574.84;4996986;28;45494;-73
2021/12/30 11:21:09;;;;;;;;;6.33;5.00;;;;;18.55;59.64;101597.06;5011286;28;45866;-73
2021/12/30 11:23:44;;;;;;;;;4.33;3.00;;;;;18.50;59.18;101589.44;5013346;28;46256;-78
2021/12/30 11:26:10;;;;;;;;;6.67;3.67;;;;;18.54;58.91;101592.59;5006993;28;45450;-72
2021/12/30 11:28:35;;;;;;;;;7.00;3.67;;;;;18.56;59.08;101597.91;5003583;28;46339;-73